sensor_id;sensor_type;location;lat;lon;timestamp;pressure;altitude;pressure_sealevel;temperature;humidity
71107;BME280;58763;47.982;11.516;2023-07-28T00:01:55;93641.63;;;15.75;70.65
71107;BME280;58763;47.982;11.516;2023-07-28T00:04:20;93640.78;;;15.63;71.36
71107;BME280;58763;47.982;11.516;2023-07-28T00:06:46;93639.22;;;15.53;72.00
71107;BME280;58763;47.982;11.516;2023-07-28T00:09:11;93639.88;;;15.50;72.00
71107;BME280;58763;47.982;11.516;2023-07-28T00:11:37;93636.38;;;15.41;72.23
71107;BME280;58763;47.982;11.516;2023-07-28T00:14:02;93635.75;;;15.44;72.07
71107;BME280;58763;47.982;11.516;2023-07-28T00:16:28;93642.78;;;15.37;72.89
71107;BME280;58763;47.982;11.516;2023-07-28T00:18:53;93638.50;;;15.27;73.19
71107;BME280;58763;47.982;11.516;2023-07-28T00:21:19;93639.03;;;15.20;73.08
71107;BME280;58763;47.982;11.516;2023-07-28T00:23:45;93636.38;;;15.03;74.13
71107;BME280;58763;47.982;11.516;2023-07-28T00:26:10;93638.00;;;14.96;74.15
71107;BME280;58763;47.982;11.516;2023-07-28T00:28:36;93635.47;;;14.91;74.35
71107;BME280;58763;47.982;11.516;2023-07-28T00:31:01;93635.34;;;14.79;75.17
71107;BME280;58763;47.982;11.516;2023-07-28T00:33:27;93639.63;;;14.80;75.17
71107;BME280;58763;47.982;11.516;2023-07-28T00:35:52;93634.06;;;14.76;75.25
71107;BME280;58763;47.982;11.516;2023-07-28T00:38:18;93637.41;;;14.73;75.30
71107;BME280;58763;47.982;11.516;2023-07-28T00:40:43;93636.63;;;14.73;75.44
71107;BME280;58763;47.982;11.516;2023-07-28T00:43:09;93633.88;;;14.73;75.73
71107;BME280;58763;47.982;11.516;2023-07-28T00:45:35;93642.38;;;14.71;75.91
71107;BME280;58763;47.982;11.516;2023-07-28T00:48:02;93636.44;;;14.78;75.63
71107;BME280;58763;47.982;11.516;2023-07-28T00:50:28;93630.53;;;14.76;75.19
71107;BME280;58763;47.982;11.516;2023-07-28T00:52:55;93635.66;;;14.69;75.47
71107;BME280;58763;47.982;11.516;2023-07-28T00:55:20;93640.50;;;14.63;75.49
71107;BME280;58763;47.982;11.516;2023-07-28T00:57:47;93632.31;;;14.72;75.32
71107;BME280;58763;47.982;11.516;2023-07-28T01:00:13;93633.59;;;14.66;75.09
71107;BME280;58763;47.982;11.516;2023-07-28T01:02:39;93629.44;;;14.68;74.89
71107;BME280;58763;47.982;11.516;2023-07-28T01:05:05;93623.97;;;14.68;74.98
71107;BME280;58763;47.982;11.516;2023-07-28T01:07:47;93630.19;;;14.77;74.29
71107;BME280;58763;47.982;11.516;2023-07-28T01:10:25;93636.44;;;14.78;73.88
71107;BME280;58763;47.982;11.516;2023-07-28T01:12:51;93632.78;;;14.74;74.02
71107;BME280;58763;47.982;11.516;2023-07-28T01:15:17;93641.09;;;14.77;73.91
71107;BME280;58763;47.982;11.516;2023-07-28T01:17:43;93643.38;;;14.67;74.41
71107;BME280;58763;47.982;11.516;2023-07-28T01:20:10;93640.34;;;14.60;74.89
71107;BME280;58763;47.982;11.516;2023-07-28T01:28:25;93634.91;;;14.51;74.62
71107;BME280;58763;47.982;11.516;2023-07-28T01:30:51;93636.84;;;14.33;75.04
71107;BME280;58763;47.982;11.516;2023-07-28T01:33:16;93636.03;;;14.33;75.73
71107;BME280;58763;47.982;11.516;2023-07-28T01:35:42;93627.72;;;14.29;75.95
71107;BME280;58763;47.982;11.516;2023-07-28T01:38:08;93643.25;;;14.20;75.84
71107;BME280;58763;47.982;11.516;2023-07-28T01:40:33;93637.47;;;14.13;76.86
71107;BME280;58763;47.982;11.516;2023-07-28T01:42:59;93635.88;;;14.12;76.67
71107;BME280;58763;47.982;11.516;2023-07-28T01:45:24;93645.31;;;14.06;76.91
71107;BME280;58763;47.982;11.516;2023-07-28T01:47:50;93645.78;;;13.91;77.43
71107;BME280;58763;47.982;11.516;2023-07-28T01:50:16;93641.63;;;13.85;77.86
71107;BME280;58763;47.982;11.516;2023-07-28T01:52:41;93643.53;;;13.84;78.02
71107;BME280;58763;47.982;11.516;2023-07-28T01:55:07;93637.94;;;13.90;77.15
71107;BME280;58763;47.982;11.516;2023-07-28T01:57:33;93639.72;;;13.85;77.14
71107;BME280;58763;47.982;11.516;2023-07-28T01:59:59;93635.72;;;13.83;77.59
71107;BME280;58763;47.982;11.516;2023-07-28T02:02:24;93635.56;;;13.88;77.16
71107;BME280;58763;47.982;11.516;2023-07-28T02:04:50;93638.09;;;13.84;77.02
71107;BME280;58763;47.982;11.516;2023-07-28T02:07:16;93631.38;;;13.82;77.36
71107;BME280;58763;47.982;11.516;2023-07-28T02:09:41;93625.63;;;13.75;77.45
71107;BME280;58763;47.982;11.516;2023-07-28T02:12:07;93639.06;;;13.71;77.34
71107;BME280;58763;47.982;11.516;2023-07-28T02:14:33;93631.38;;;13.65;77.96
71107;BME280;58763;47.982;11.516;2023-07-28T02:16:58;93640.16;;;13.70;77.90
71107;BME280;58763;47.982;11.516;2023-07-28T02:19:24;93637.91;;;13.72;77.42
71107;BME280;58763;47.982;11.516;2023-07-28T02:21:50;93636.16;;;13.68;77.66
71107;BME280;58763;47.982;11.516;2023-07-28T02:24:16;93642.09;;;13.78;77.68
71107;BME280;58763;47.982;11.516;2023-07-28T02:26:41;93631.88;;;13.75;77.18
71107;BME280;58763;47.982;11.516;2023-07-28T02:29:07;93637.28;;;13.75;77.00
71107;BME280;58763;47.982;11.516;2023-07-28T02:31:32;93635.22;;;13.64;77.90
71107;BME280;58763;47.982;11.516;2023-07-28T02:33:59;93642.25;;;13.65;77.39
71107;BME280;58763;47.982;11.516;2023-07-28T02:36:24;93641.25;;;13.61;77.77
71107;BME280;58763;47.982;11.516;2023-07-28T02:38:50;93627.69;;;13.61;78.01
71107;BME280;58763;47.982;11.516;2023-07-28T02:41:16;93631.06;;;13.58;77.74
71107;BME280;58763;47.982;11.516;2023-07-28T02:43:41;93634.09;;;13.65;77.13
71107;BME280;58763;47.982;11.516;2023-07-28T02:46:07;93635.69;;;13.57;77.12
71107;BME280;58763;47.982;11.516;2023-07-28T02:48:32;93625.16;;;13.64;77.24
71107;BME280;58763;47.982;11.516;2023-07-28T02:50:58;93635.06;;;13.69;77.09
71107;BME280;58763;47.982;11.516;2023-07-28T02:53:23;93636.97;;;13.68;77.00
71107;BME280;58763;47.982;11.516;2023-07-28T02:55:49;93636.00;;;13.73;76.58
71107;BME280;58763;47.982;11.516;2023-07-28T02:58:15;93637.78;;;13.77;76.77
71107;BME280;58763;47.982;11.516;2023-07-28T03:00:42;93630.09;;;13.71;76.89
71107;BME280;58763;47.982;11.516;2023-07-28T03:03:08;93629.31;;;13.79;76.38
71107;BME280;58763;47.982;11.516;2023-07-28T03:05:39;93634.56;;;13.84;76.38
71107;BME280;58763;47.982;11.516;2023-07-28T03:08:05;93631.72;;;13.89;76.01
71107;BME280;58763;47.982;11.516;2023-07-28T03:10:31;93636.84;;;13.99;75.76
71107;BME280;58763;47.982;11.516;2023-07-28T03:12:57;93637.31;;;14.01;75.04
71107;BME280;58763;47.982;11.516;2023-07-28T03:15:23;93645.31;;;14.15;75.49
71107;BME280;58763;47.982;11.516;2023-07-28T03:17:52;93638.75;;;14.16;75.29
71107;BME280;58763;47.982;11.516;2023-07-28T03:20:19;93637.31;;;14.10;75.40
71107;BME280;58763;47.982;11.516;2023-07-28T03:22:45;93640.53;;;14.20;75.08
71107;BME280;58763;47.982;11.516;2023-07-28T03:25:12;93641.16;;;14.26;74.54
71107;BME280;58763;47.982;11.516;2023-07-28T03:27:37;93634.59;;;14.27;74.15
71107;BME280;58763;47.982;11.516;2023-07-28T03:30:03;93636.66;;;14.21;74.55
71107;BME280;58763;47.982;11.516;2023-07-28T03:32:32;93645.63;;;14.13;74.55
71107;BME280;58763;47.982;11.516;2023-07-28T03:34:58;93646.13;;;14.15;74.38
71107;BME280;58763;47.982;11.516;2023-07-28T03:37:23;93644.69;;;14.18;74.73
71107;BME280;58763;47.982;11.516;2023-07-28T03:39:49;93652.19;;;14.12;75.05
71107;BME280;58763;47.982;11.516;2023-07-28T03:42:14;93652.50;;;14.11;74.92
71107;BME280;58763;47.982;11.516;2023-07-28T03:44:43;93650.28;;;14.13;75.52
71107;BME280;58763;47.982;11.516;2023-07-28T03:47:09;93646.44;;;14.22;75.16
71107;BME280;58763;47.982;11.516;2023-07-28T03:49:34;93652.34;;;14.24;75.44
71107;BME280;58763;47.982;11.516;2023-07-28T03:52:00;93652.34;;;14.24;75.25
71107;BME280;58763;47.982;11.516;2023-07-28T03:54:25;93641.78;;;14.23;76.15
71107;BME280;58763;47.982;11.516;2023-07-28T03:56:51;93637.94;;;14.24;75.84
71107;BME280;58763;47.982;11.516;2023-07-28T03:59:17;93643.72;;;14.22;75.48
71107;BME280;58763;47.982;11.516;2023-07-28T04:01:42;93653.97;;;14.25;75.13
71107;BME280;58763;47.982;11.516;2023-07-28T04:04:07;93642.59;;;14.23;75.33
71107;BME280;58763;47.982;11.516;2023-07-28T04:06:41;93648.03;;;14.23;74.86
71107;BME280;58763;47.982;11.516;2023-07-28T04:09:07;93634.59;;;14.18;75.20
71107;BME280;58763;47.982;11.516;2023-07-28T04:11:33;93633.94;;;14.21;75.19
71107;BME280;58763;47.982;11.516;2023-07-28T04:13:59;93635.88;;;14.29;74.63
71107;BME280;58763;47.982;11.516;2023-07-28T04:16:25;93649.81;;;14.28;74.93
71107;BME280;58763;47.982;11.516;2023-07-28T04:18:50;93648.72;;;14.37;74.94
71107;BME280;58763;47.982;11.516;2023-07-28T04:21:16;93643.88;;;14.26;75.49
71107;BME280;58763;47.982;11.516;2023-07-28T04:23:42;93640.50;;;14.29;75.91
71107;BME280;58763;47.982;11.516;2023-07-28T04:26:09;93642.63;;;14.32;75.79
71107;BME280;58763;47.982;11.516;2023-07-28T04:28:34;93638.13;;;14.44;75.61
71107;BME280;58763;47.982;11.516;2023-07-28T04:31:00;93638.91;;;14.45;75.35
71107;BME280;58763;47.982;11.516;2023-07-28T04:33:26;93641.34;;;14.46;74.66
71107;BME280;58763;47.982;11.516;2023-07-28T04:35:51;93635.09;;;14.46;74.36
71107;BME280;58763;47.982;11.516;2023-07-28T04:38:17;93633.63;;;14.48;74.67
71107;BME280;58763;47.982;11.516;2023-07-28T04:40:44;93639.22;;;14.52;74.23
71107;BME280;58763;47.982;11.516;2023-07-28T04:43:10;93646.59;;;14.51;73.45
71107;BME280;58763;47.982;11.516;2023-07-28T04:45:36;93642.13;;;14.56;74.28
71107;BME280;58763;47.982;11.516;2023-07-28T04:48:02;93652.84;;;14.61;74.82
71107;BME280;58763;47.982;11.516;2023-07-28T04:50:28;93663.34;;;14.79;75.32
71107;BME280;58763;47.982;11.516;2023-07-28T04:52:54;93665.88;;;14.93;74.58
71107;BME280;58763;47.982;11.516;2023-07-28T04:55:20;93659.78;;;14.96;75.17
71107;BME280;58763;47.982;11.516;2023-07-28T04:57:46;93659.59;;;15.09;74.48
71107;BME280;58763;47.982;11.516;2023-07-28T05:00:12;93652.97;;;15.19;72.80
71107;BME280;58763;47.982;11.516;2023-07-28T05:02:38;93662.13;;;15.14;73.28
71107;BME280;58763;47.982;11.516;2023-07-28T05:05:04;93663.03;;;15.27;72.82
71107;BME280;58763;47.982;11.516;2023-07-28T05:07:29;93659.78;;;15.34;72.54
71107;BME280;58763;47.982;11.516;2023-07-28T05:09:55;93662.38;;;15.30;72.72
71107;BME280;58763;47.982;11.516;2023-07-28T05:12:21;93657.53;;;15.36;73.00
71107;BME280;58763;47.982;11.516;2023-07-28T05:14:47;93670.84;;;15.37;73.13
71107;BME280;58763;47.982;11.516;2023-07-28T05:17:12;93672.94;;;15.40;73.55
71107;BME280;58763;47.982;11.516;2023-07-28T05:19:38;93685.38;;;15.50;73.39
71107;BME280;58763;47.982;11.516;2023-07-28T05:22:03;93683.66;;;15.45;74.64
71107;BME280;58763;47.982;11.516;2023-07-28T05:24:32;93684.16;;;15.47;74.94
71107;BME280;58763;47.982;11.516;2023-07-28T05:26:58;93678.25;;;15.28;76.51
71107;BME280;58763;47.982;11.516;2023-07-28T05:29:24;93667.66;;;15.27;77.12
71107;BME280;58763;47.982;11.516;2023-07-28T05:31:49;93674.28;;;15.17;80.00
71107;BME280;58763;47.982;11.516;2023-07-28T05:34:15;93693.41;;;15.00;82.14
71107;BME280;58763;47.982;11.516;2023-07-28T05:36:42;93691.47;;;15.09;83.63
71107;BME280;58763;47.982;11.516;2023-07-28T05:39:08;93696.25;;;15.12;84.06
71107;BME280;58763;47.982;11.516;2023-07-28T05:41:33;93697.53;;;15.06;84.51
71107;BME280;58763;47.982;11.516;2023-07-28T05:43:59;93693.38;;;15.08;83.73
71107;BME280;58763;47.982;11.516;2023-07-28T05:46:24;93700.91;;;15.11;82.97
71107;BME280;58763;47.982;11.516;2023-07-28T05:48:50;93697.53;;;15.06;82.26
71107;BME280;58763;47.982;11.516;2023-07-28T05:51:16;93702.03;;;15.02;82.25
71107;BME280;58763;47.982;11.516;2023-07-28T05:53:41;93700.78;;;14.91;82.50
71107;BME280;58763;47.982;11.516;2023-07-28T05:56:07;93715.81;;;14.97;81.43
71107;BME280;58763;47.982;11.516;2023-07-28T05:58:32;93721.59;;;14.87;81.25
71107;BME280;58763;47.982;11.516;2023-07-28T06:00:58;93727.84;;;14.87;82.54
71107;BME280;58763;47.982;11.516;2023-07-28T06:03:24;93714.41;;;14.82;82.92
71107;BME280;58763;47.982;11.516;2023-07-28T06:05:50;93718.75;;;14.83;81.50
71107;BME280;58763;47.982;11.516;2023-07-28T06:08:16;93718.56;;;14.88;81.92
71107;BME280;58763;47.982;11.516;2023-07-28T06:10:41;93725.44;;;14.94;82.73
71107;BME280;58763;47.982;11.516;2023-07-28T06:13:07;93726.56;;;14.93;83.16
71107;BME280;58763;47.982;11.516;2023-07-28T06:15:32;93731.81;;;14.98;82.33
71107;BME280;58763;47.982;11.516;2023-07-28T06:18:00;93732.34;;;15.00;82.84
71107;BME280;58763;47.982;11.516;2023-07-28T06:20:28;93738.84;;;15.08;83.01
71107;BME280;58763;47.982;11.516;2023-07-28T06:22:54;93740.28;;;15.22;84.09
71107;BME280;58763;47.982;11.516;2023-07-28T06:25:20;93740.75;;;15.33;81.70
71107;BME280;58763;47.982;11.516;2023-07-28T06:27:46;93734.63;;;15.36;82.01
71107;BME280;58763;47.982;11.516;2023-07-28T06:30:12;93733.97;;;15.39;81.85
71107;BME280;58763;47.982;11.516;2023-07-28T06:32:37;93742.13;;;15.48;81.25
71107;BME280;58763;47.982;11.516;2023-07-28T06:35:05;93736.38;;;15.49;80.11
71107;BME280;58763;47.982;11.516;2023-07-28T06:37:32;93744.03;;;15.56;80.47
71107;BME280;58763;47.982;11.516;2023-07-28T06:39:58;93750.38;;;15.77;80.04
71107;BME280;58763;47.982;11.516;2023-07-28T06:45:46;93752.56;;;16.13;78.95
71107;BME280;58763;47.982;11.516;2023-07-28T06:48:12;93745.56;;;16.32;78.35
71107;BME280;58763;47.982;11.516;2023-07-28T06:50:38;93754.28;;;16.46;76.89
71107;BME280;58763;47.982;11.516;2023-07-28T06:53:03;93750.41;;;16.56;77.41
71107;BME280;58763;47.982;11.516;2023-07-28T06:55:30;93765.56;;;16.86;77.91
71107;BME280;58763;47.982;11.516;2023-07-28T06:57:56;93776.38;;;17.15;76.94
71107;BME280;58763;47.982;11.516;2023-07-28T07:00:21;93768.13;;;17.24;75.67
71107;BME280;58763;47.982;11.516;2023-07-28T07:02:48;93776.88;;;17.29;74.84
71107;BME280;58763;47.982;11.516;2023-07-28T07:05:14;93773.72;;;17.40;75.49
71107;BME280;58763;47.982;11.516;2023-07-28T07:07:40;93769.91;;;17.53;75.79
71107;BME280;58763;47.982;11.516;2023-07-28T07:10:06;93761.31;;;17.87;76.81
71107;BME280;58763;47.982;11.516;2023-07-28T07:12:32;93762.59;;;18.02;75.16
71107;BME280;58763;47.982;11.516;2023-07-28T07:14:58;93761.66;;;18.34;75.44
71107;BME280;58763;47.982;11.516;2023-07-28T07:17:23;93759.41;;;18.48;71.53
71107;BME280;58763;47.982;11.516;2023-07-28T07:19:49;93748.81;;;18.74;72.28
71107;BME280;58763;47.982;11.516;2023-07-28T07:22:14;93760.28;;;19.04;69.72
71107;BME280;58763;47.982;11.516;2023-07-28T07:24:40;93758.78;;;19.06;67.92
71107;BME280;58763;47.982;11.516;2023-07-28T07:27:06;93761.38;;;19.15;67.85
71107;BME280;58763;47.982;11.516;2023-07-28T07:29:32;93757.41;;;19.40;67.73
71107;BME280;58763;47.982;11.516;2023-07-28T07:31:57;93751.91;;;19.40;67.06
71107;BME280;58763;47.982;11.516;2023-07-28T07:34:23;93760.88;;;19.53;67.03
71107;BME280;58763;47.982;11.516;2023-07-28T07:36:49;93755.91;;;19.58;66.03
71107;BME280;58763;47.982;11.516;2023-07-28T07:39:15;93756.03;;;19.62;65.55
71107;BME280;58763;47.982;11.516;2023-07-28T07:41:40;93758.75;;;19.46;65.61
71107;BME280;58763;47.982;11.516;2023-07-28T07:44:07;93756.00;;;19.46;66.08
71107;BME280;58763;47.982;11.516;2023-07-28T07:46:33;93756.28;;;19.57;66.16
71107;BME280;58763;47.982;11.516;2023-07-28T07:48:58;93749.47;;;19.66;66.67
71107;BME280;58763;47.982;11.516;2023-07-28T07:51:24;93742.94;;;19.86;65.91
71107;BME280;58763;47.982;11.516;2023-07-28T07:53:49;93744.63;;;20.07;68.07
71107;BME280;58763;47.982;11.516;2023-07-28T07:56:15;93744.13;;;20.32;66.20
71107;BME280;58763;47.982;11.516;2023-07-28T07:58:42;93743.38;;;20.51;65.20
71107;BME280;58763;47.982;11.516;2023-07-28T08:01:07;93754.25;;;20.63;63.47
71107;BME280;58763;47.982;11.516;2023-07-28T08:03:33;93745.50;;;20.77;64.28
71107;BME280;58763;47.982;11.516;2023-07-28T08:05:59;93753.13;;;21.02;65.07
71107;BME280;58763;47.982;11.516;2023-07-28T08:08:24;93756.22;;;21.01;62.96
71107;BME280;58763;47.982;11.516;2023-07-28T08:10:52;93758.06;;;21.12;62.82
71107;BME280;58763;47.982;11.516;2023-07-28T08:13:17;93754.75;;;21.22;62.52
71107;BME280;58763;47.982;11.516;2023-07-28T08:15:44;93740.44;;;21.13;63.08
71107;BME280;58763;47.982;11.516;2023-07-28T08:18:11;93751.72;;;21.27;63.40
71107;BME280;58763;47.982;11.516;2023-07-28T08:20:37;93751.28;;;21.25;63.52
71107;BME280;58763;47.982;11.516;2023-07-28T08:23:02;93744.19;;;21.24;61.77
71107;BME280;58763;47.982;11.516;2023-07-28T08:25:28;93757.34;;;21.34;62.43
71107;BME280;58763;47.982;11.516;2023-07-28T08:27:54;93747.50;;;21.53;62.28
71107;BME280;58763;47.982;11.516;2023-07-28T08:30:19;93744.00;;;21.75;62.31
71107;BME280;58763;47.982;11.516;2023-07-28T08:32:45;93756.19;;;21.96;60.78
71107;BME280;58763;47.982;11.516;2023-07-28T08:35:11;93761.34;;;21.98;60.01
71107;BME280;58763;47.982;11.516;2023-07-28T08:37:37;93750.44;;;22.05;61.40
71107;BME280;58763;47.982;11.516;2023-07-28T08:40:04;93756.97;;;22.20;60.15
71107;BME280;58763;47.982;11.516;2023-07-28T08:42:31;93756.06;;;22.35;60.50
71107;BME280;58763;47.982;11.516;2023-07-28T08:45:02;93761.72;;;22.45;58.33
71107;BME280;58763;47.982;11.516;2023-07-28T08:47:30;93755.59;;;22.55;59.58
71107;BME280;58763;47.982;11.516;2023-07-28T08:49:55;93765.44;;;22.56;57.83
71107;BME280;58763;47.982;11.516;2023-07-28T08:52:22;93759.41;;;22.74;58.88
71107;BME280;58763;47.982;11.516;2023-07-28T08:54:49;93765.53;;;22.86;57.06
71107;BME280;58763;47.982;11.516;2023-07-28T08:57:16;93771.16;;;22.67;55.80
71107;BME280;58763;47.982;11.516;2023-07-28T08:59:42;93771.94;;;22.67;55.92
71107;BME280;58763;47.982;11.516;2023-07-28T09:02:14;93770.03;;;22.72;54.24
71107;BME280;58763;47.982;11.516;2023-07-28T09:04:42;93783.13;;;22.55;54.11
71107;BME280;58763;47.982;11.516;2023-07-28T09:07:07;93777.25;;;22.31;54.55
71107;BME280;58763;47.982;11.516;2023-07-28T09:09:35;93765.69;;;22.22;54.27
71107;BME280;58763;47.982;11.516;2023-07-28T09:12:03;93777.16;;;22.27;54.86
71107;BME280;58763;47.982;11.516;2023-07-28T09:14:30;93784.09;;;22.40;55.49
71107;BME280;58763;47.982;11.516;2023-07-28T09:17:06;93780.53;;;22.40;55.49
71107;BME280;58763;47.982;11.516;2023-07-28T09:19:34;93778.78;;;22.28;54.87
71107;BME280;58763;47.982;11.516;2023-07-28T09:22:01;93780.22;;;22.22;55.79
71107;BME280;58763;47.982;11.516;2023-07-28T09:24:32;93780.84;;;22.35;57.22
71107;BME280;58763;47.982;11.516;2023-07-28T09:27:00;93783.97;;;22.33;55.22
71107;BME280;58763;47.982;11.516;2023-07-28T09:29:30;93785.75;;;22.45;56.53
71107;BME280;58763;47.982;11.516;2023-07-28T09:32:06;93782.41;;;22.36;55.47
71107;BME280;58763;47.982;11.516;2023-07-28T09:34:33;93781.31;;;22.18;55.07
71107;BME280;58763;47.982;11.516;2023-07-28T09:36:59;93781.50;;;22.06;55.37
71107;BME280;58763;47.982;11.516;2023-07-28T09:39:26;93786.84;;;21.95;55.91
71107;BME280;58763;47.982;11.516;2023-07-28T09:41:52;93784.94;;;21.99;56.28
71107;BME280;58763;47.982;11.516;2023-07-28T09:44:18;93772.78;;;22.00;55.99
71107;BME280;58763;47.982;11.516;2023-07-28T09:46:55;93785.31;;;21.97;56.88
71107;BME280;58763;47.982;11.516;2023-07-28T09:49:37;93782.94;;;21.96;56.01
71107;BME280;58763;47.982;11.516;2023-07-28T09:52:08;93786.84;;;21.95;54.53
71107;BME280;58763;47.982;11.516;2023-07-28T09:54:38;93791.66;;;22.01;55.65
71107;BME280;58763;47.982;11.516;2023-07-28T09:57:04;93789.16;;;21.93;56.45
71107;BME280;58763;47.982;11.516;2023-07-28T09:59:39;93789.22;;;21.96;56.86
71107;BME280;58763;47.982;11.516;2023-07-28T10:02:05;93792.72;;;21.93;56.59
71107;BME280;58763;47.982;11.516;2023-07-28T10:04:32;93776.69;;;21.99;56.17
71107;BME280;58763;47.982;11.516;2023-07-28T10:06:58;93777.66;;;22.10;56.75
71107;BME280;58763;47.982;11.516;2023-07-28T10:09:28;93777.34;;;22.15;56.42
71107;BME280;58763;47.982;11.516;2023-07-28T10:11:56;93771.63;;;22.24;56.32
71107;BME280;58763;47.982;11.516;2023-07-28T10:16:50;93772.91;;;22.07;56.39
71107;BME280;58763;47.982;11.516;2023-07-28T10:19:20;93779.34;;;22.15;56.50
71107;BME280;58763;47.982;11.516;2023-07-28T10:21:46;93778.22;;;22.19;56.16
71107;BME280;58763;47.982;11.516;2023-07-28T10:24:11;93790.34;;;22.15;56.93
71107;BME280;58763;47.982;11.516;2023-07-28T10:26:38;93784.47;;;22.16;56.72
71107;BME280;58763;47.982;11.516;2023-07-28T10:29:14;93787.09;;;22.09;56.43
71107;BME280;58763;47.982;11.516;2023-07-28T10:31:58;93799.59;;;22.03;56.35
71107;BME280;58763;47.982;11.516;2023-07-28T10:34:24;93794.06;;;22.03;57.95
71107;BME280;58763;47.982;11.516;2023-07-28T10:36:59;93784.84;;;22.15;56.26
71107;BME280;58763;47.982;11.516;2023-07-28T10:39:25;93791.13;;;22.15;55.62
71107;BME280;58763;47.982;11.516;2023-07-28T10:42:09;93792.47;;;22.02;56.39
71107;BME280;58763;47.982;11.516;2023-07-28T10:44:35;93805.13;;;21.84;57.21
71107;BME280;58763;47.982;11.516;2023-07-28T10:47:01;93793.53;;;21.75;57.00
71107;BME280;58763;47.982;11.516;2023-07-28T10:49:27;93803.88;;;21.81;58.23
71107;BME280;58763;47.982;11.516;2023-07-28T10:51:53;93803.00;;;21.77;56.87
71107;BME280;58763;47.982;11.516;2023-07-28T10:54:19;93807.63;;;21.73;56.08
71107;BME280;58763;47.982;11.516;2023-07-28T10:56:46;93798.75;;;21.61;56.32
71107;BME280;58763;47.982;11.516;2023-07-28T10:59:14;93803.38;;;21.57;56.42
71107;BME280;58763;47.982;11.516;2023-07-28T11:01:41;93805.41;;;21.60;57.13
71107;BME280;58763;47.982;11.516;2023-07-28T11:04:16;93796.22;;;21.52;56.41
71107;BME280;58763;47.982;11.516;2023-07-28T11:06:47;93808.81;;;21.53;56.51
71107;BME280;58763;47.982;11.516;2023-07-28T11:09:15;93805.41;;;21.60;56.64
71107;BME280;58763;47.982;11.516;2023-07-28T11:11:42;93801.50;;;21.61;55.92
71107;BME280;58763;47.982;11.516;2023-07-28T11:14:10;93802.75;;;21.63;57.04
71107;BME280;58763;47.982;11.516;2023-07-28T11:16:39;93802.06;;;21.70;56.77
71107;BME280;58763;47.982;11.516;2023-07-28T11:19:09;93797.63;;;21.84;56.50
71107;BME280;58763;47.982;11.516;2023-07-28T11:21:49;93797.72;;;21.88;55.41
71107;BME280;58763;47.982;11.516;2023-07-28T11:24:20;93795.53;;;21.97;56.65
71107;BME280;58763;47.982;11.516;2023-07-28T11:26:46;93794.94;;;22.07;56.07
71107;BME280;58763;47.982;11.516;2023-07-28T11:29:12;93793.88;;;22.15;56.34
71107;BME280;58763;47.982;11.516;2023-07-28T11:31:40;93791.66;;;22.24;54.55
71107;BME280;58763;47.982;11.516;2023-07-28T11:34:16;93793.66;;;22.24;55.05
71107;BME280;58763;47.982;11.516;2023-07-28T11:36:45;93790.22;;;22.30;54.85
71107;BME280;58763;47.982;11.516;2023-07-28T11:39:12;93787.50;;;22.34;54.87
71107;BME280;58763;47.982;11.516;2023-07-28T11:41:38;93788.03;;;22.43;54.16
71107;BME280;58763;47.982;11.516;2023-07-28T11:44:06;93781.84;;;22.72;55.16
71107;BME280;58763;47.982;11.516;2023-07-28T11:49:19;93786.88;;;23.49;50.24
71107;BME280;58763;47.982;11.516;2023-07-28T11:51:49;93786.63;;;23.61;48.96
71107;BME280;58763;47.982;11.516;2023-07-28T11:54:16;93787.50;;;23.68;51.01
71107;BME280;58763;47.982;11.516;2023-07-28T11:56:43;93792.84;;;23.87;50.02
71107;BME280;58763;47.982;11.516;2023-07-28T11:59:10;93788.25;;;24.02;49.48
71107;BME280;58763;47.982;11.516;2023-07-28T12:02:01;93787.34;;;24.24;48.99
71107;BME280;58763;47.982;11.516;2023-07-28T12:04:28;93784.75;;;24.45;46.56
71107;BME280;58763;47.982;11.516;2023-07-28T12:07:30;93778.50;;;24.55;47.15
71107;BME280;58763;47.982;11.516;2023-07-28T12:09:56;93784.47;;;24.57;46.74
71107;BME280;58763;47.982;11.516;2023-07-28T12:12:26;93780.69;;;24.32;47.98
71107;BME280;58763;47.982;11.516;2023-07-28T12:14:55;93767.78;;;24.47;47.39
71107;BME280;58763;47.982;11.516;2023-07-28T12:17:22;93779.41;;;24.70;47.87
71107;BME280;58763;47.982;11.516;2023-07-28T12:20:02;93781.69;;;25.08;45.94
71107;BME280;58763;47.982;11.516;2023-07-28T12:22:40;93772.19;;;25.06;45.07
71107;BME280;58763;47.982;11.516;2023-07-28T12:25:06;93772.06;;;24.88;46.57
71107;BME280;58763;47.982;11.516;2023-07-28T12:27:32;93776.78;;;24.84;44.22
71107;BME280;58763;47.982;11.516;2023-07-28T12:29:59;93779.69;;;25.02;45.61
71107;BME280;58763;47.982;11.516;2023-07-28T12:32:24;93778.66;;;25.27;45.19
71107;BME280;58763;47.982;11.516;2023-07-28T12:34:50;93786.47;;;25.18;42.28
71107;BME280;58763;47.982;11.516;2023-07-28T12:37:19;93784.00;;;24.99;42.39
71107;BME280;58763;47.982;11.516;2023-07-28T12:39:46;93798.16;;;24.87;41.61
71107;BME280;58763;47.982;11.516;2023-07-28T12:42:12;93789.66;;;24.66;42.05
71107;BME280;58763;47.982;11.516;2023-07-28T12:44:38;93791.16;;;24.56;43.14
71107;BME280;58763;47.982;11.516;2023-07-28T12:47:05;93802.50;;;24.41;42.81
71107;BME280;58763;47.982;11.516;2023-07-28T12:49:31;93800.00;;;24.29;43.16
71107;BME280;58763;47.982;11.516;2023-07-28T12:51:58;93791.38;;;24.34;43.46
71107;BME280;58763;47.982;11.516;2023-07-28T12:54:25;93804.81;;;24.39;42.88
71107;BME280;58763;47.982;11.516;2023-07-28T12:56:51;93785.38;;;24.25;43.88
71107;BME280;58763;47.982;11.516;2023-07-28T12:59:17;93792.56;;;23.99;44.12
71107;BME280;58763;47.982;11.516;2023-07-28T13:01:43;93796.31;;;23.81;45.10
71107;BME280;58763;47.982;11.516;2023-07-28T13:04:09;93798.97;;;23.70;45.08